aviador You're here:

KASD Decoded Metar

SLIDELL 22 in LA, USA
Report Time2018-04-23 22:53:00
UTC Time2018-04-23 23:06:41
Flight Rules vfr VFR
Wind320° at 06 kt
W.Decomp.*RWY 36: 4.5 kt HW 4 kt LCW
W.Rank320° ranks 27
Current wind is above 320° avg. (5.8)
Visibility9999 m
Phenomena:N/A
Clouds:Few 044 Hf
Expected CloudBase > 4,000 ft AGL from Temp-Dew spread
CeilingNone
Temp21°C (ISA +6)
Dew Point11°C (53% RH)
AAT19.2°C
QNH1014 hPa
Density Alt883 ft
Elevation30 ft
Report Wrong Elevation
Raw Report
KASD 232253Z AUTO 32006KT 10SM FEW044 21/11 A2994 RMK AO2 SLP138
T02060111=

Extra information for KASD:More info

Metar Taf Metar & Taf Last 4 Metars F.Rules Stats Wind Profile Meteogram Temp Stats Airport Information Weather charts Add Link Nearby VenuesMetar ALERT Operation Metar Decoded Social comments

AIRNAV info for KASD